Time;durP1;ratioP1;P1;durP2;ratioP2;P2;SDS_P1;SDS_P2;PMS_P1;PMS_P2;Temp;Humidity;BMP_temperature;BMP_pressure;BME280_temperature;BME280_humidity;BME280_pressure;Samples;Min_cycle;Max_cycle;Signal;HPM_P1;HPM_P2
2023/10/12 00:00:24;;;;;;;8.88;6.25;;;;;;;13.22;59.34;95482.81;4189020;28;20095;-70
2023/10/12 00:02:27;;;;;;;10.25;6.50;;;;;;;12.47;61.65;95482.47;4207577;28;20059;-70
2023/10/12 00:04:37;;;;;;;17.83;7.37;;;;;;;12.41;62.55;95480.44;4208593;28;20544;-70
2023/10/12 00:06:43;;;;;;;11.65;6.43;;;;;;;12.53;62.32;95481.84;4178741;28;20293;-71
2023/10/12 00:08:45;;;;;;;12.93;7.03;;;;;;;12.70;62.12;95472.31;4195307;28;20163;-71
2023/10/12 00:10:53;;;;;;;12.10;6.68;;;;;;;12.83;61.49;95471.91;4211883;28;20511;-73
2023/10/12 00:12:59;;;;;;;9.43;6.65;;;;;;;12.82;61.33;95472.88;4210576;28;20496;-71
2023/10/12 00:15:17;;;;;;;10.55;6.90;;;;;;;12.65;61.35;95472.75;4210357;28;20048;-71
2023/10/12 00:17:19;;;;;;;7.95;6.10;;;;;;;12.63;61.63;95466.84;4201312;28;20143;-71
2023/10/12 00:19:23;;;;;;;17.00;7.05;;;;;;;12.71;61.57;95463.41;4193955;28;20056;-73
2023/10/12 00:21:28;;;;;;;9.05;7.03;;;;;;;12.87;61.50;95458.28;4212529;28;20417;-69
2023/10/12 00:23:33;;;;;;;11.75;7.13;;;;;;;13.04;60.81;95461.84;4211753;28;20055;-70
2023/10/12 00:25:54;;;;;;;9.40;6.35;;;;;;;13.13;60.70;95454.00;4210327;28;20054;-71
2023/10/12 00:27:57;;;;;;;9.93;6.85;;;;;;;13.23;60.15;95449.47;4194428;28;20052;-69
2023/10/12 00:30:00;;;;;;;15.23;6.77;;;;;;;13.31;59.87;95450.38;4185801;28;20507;-71
2023/10/12 00:32:06;;;;;;;9.15;6.38;;;;;;;13.37;59.62;95441.00;4204773;28;20068;-69
2023/10/12 00:34:09;;;;;;;9.70;6.80;;;;;;;13.42;59.12;95430.84;4205886;28;20447;-70
2023/10/12 00:36:37;;;;;;;8.02;6.28;;;;;;;13.45;59.52;95440.22;4212361;28;20056;-72
2023/10/12 00:38:33;;;;;;;9.48;6.65;;;;;;;13.47;59.29;95436.44;4196847;28;20055;-71
2023/10/12 00:40:35;;;;;;;8.65;6.13;;;;;;;13.49;59.05;95437.09;4187476;28;20048;-70
2023/10/12 00:42:37;;;;;;;13.20;6.93;;;;;;;13.49;58.98;95441.56;4211740;28;20543;-69
2023/10/12 00:44:41;;;;;;;12.02;6.60;;;;;;;13.53;58.95;95442.88;4208495;28;20052;-70
2023/10/12 00:46:58;;;;;;;9.32;6.65;;;;;;;13.51;59.06;95439.59;4211946;28;20113;-70
2023/10/12 00:51:18;;;;;;;11.13;7.30;;;;;;;13.48;59.21;95435.44;4193740;28;20110;-70
2023/10/12 00:53:22;;;;;;;12.48;6.40;;;;;;;13.45;58.78;95438.41;4192990;28;20447;-69
2023/10/12 00:55:37;;;;;;;12.98;7.53;;;;;;;13.38;59.29;95436.53;4177532;28;20142;-71
2023/10/12 00:57:39;;;;;;;12.55;7.55;;;;;;;13.34;59.11;95438.69;4201591;28;20076;-71
2023/10/12 00:59:43;;;;;;;10.80;7.30;;;;;;;13.34;59.42;95430.78;4185184;28;20524;-70
2023/10/12 01:01:45;;;;;;;;;;;;;;;13.36;59.39;95427.97;4207218;28;20416;-69
2023/10/12 01:03:49;;;;;;;12.10;7.30;;;;;;;13.31;59.65;95426.69;4177337;28;19924;-69
2023/10/12 01:06:07;;;;;;;;;;;;;;;13.29;59.22;95426.00;4193745;28;20053;-69
2023/10/12 01:08:18;;;;;;;13.55;7.63;;;;;;;13.34;59.29;95429.97;4207492;28;20020;-69
2023/10/12 01:10:28;;;;;;;13.85;8.05;;;;;;;13.27;59.03;95429.72;4191043;28;20536;-72
2023/10/12 01:12:31;;;;;;;17.80;7.63;;;;;;;13.20;59.60;95428.72;4192473;28;20272;-70
2023/10/12 01:14:33;;;;;;;11.35;7.63;;;;;;;13.20;59.77;95429.53;4193206;28;20120;-71
2023/10/12 01:19:00;;;;;;;10.60;6.60;;;;;;;12.88;60.29;95432.81;4201963;28;20484;-69
2023/10/12 01:21:03;;;;;;;12.23;7.25;;;;;;;12.86;60.46;95424.25;4211758;28;20081;-70
2023/10/12 01:23:05;;;;;;;12.18;7.20;;;;;;;12.84;60.73;95423.56;4211093;28;20131;-70
2023/10/12 01:25:19;;;;;;;8.98;6.72;;;;;;;12.79;60.36;95423.22;4192897;28;20055;-72
2023/10/12 01:27:21;;;;;;;10.40;7.20;;;;;;;12.74;60.52;95431.59;4204674;28;20057;-70
2023/10/12 01:29:25;;;;;;;14.43;7.25;;;;;;;12.77;60.66;95425.19;4208016;28;20051;-72
2023/10/12 01:31:28;;;;;;;12.00;7.13;;;;;;;12.83;60.34;95427.19;4192612;28;20048;-71
2023/10/12 01:33:30;;;;;;;12.30;7.63;;;;;;;12.87;60.21;95423.28;4193614;28;20048;-71
2023/10/12 01:35:39;;;;;;;10.40;7.50;;;;;;;12.90;59.98;95429.03;4206477;28;20043;-71
2023/10/12 01:37:55;;;;;;;12.70;7.40;;;;;;;12.92;59.90;95423.63;4207468;28;20159;-71
2023/10/12 01:42:06;;;;;;;13.70;7.20;;;;;;;12.93;59.85;95417.41;4207135;28;20131;-69
2023/10/12 01:44:11;;;;;;;11.95;7.32;;;;;;;12.84;59.83;95418.31;4211235;28;20079;-69
2023/10/12 01:46:16;;;;;;;;;;;;;;;12.84;59.83;95415.69;4175533;28;20127;-71
2023/10/12 01:48:22;;;;;;;12.10;6.25;;;;;;;12.85;59.55;95414.72;4210946;28;20281;-69
2023/10/12 01:50:25;;;;;;;14.10;6.75;;;;;;;12.76;59.92;95419.13;4186212;28;20068;-71
2023/10/12 01:52:26;;;;;;;14.13;7.38;;;;;;;12.64;60.11;95418.53;4193643;28;20163;-69
2023/10/12 01:54:29;;;;;;;15.90;8.02;;;;;;;12.13;61.23;95422.75;4206430;28;20144;-69
2023/10/12 01:56:33;;;;;;;16.00;7.77;;;;;;;12.12;61.59;95421.09;4184563;28;20075;-70
2023/10/12 01:58:35;;;;;;;9.18;6.28;;;;;;;11.95;62.39;95425.34;4205196;28;20127;-68
2023/10/12 02:00:41;;;;;;;12.45;6.38;;;;;;;11.80;62.44;95427.63;4204360;28;20048;-71
2023/10/12 02:02:53;;;;;;;11.00;6.22;;;;;;;11.72;63.18;95437.22;4200875;28;20497;-71
2023/10/12 02:04:56;;;;;;;11.23;6.97;;;;;;;11.48;63.52;95439.44;4199094;28;20040;-70
2023/10/12 02:06:58;;;;;;;13.05;7.28;;;;;;;11.55;63.68;95438.84;4191380;28;20080;-70
2023/10/12 02:09:08;;;;;;;8.75;6.72;;;;;;;11.68;63.66;95440.16;4209887;28;20055;-68
2023/10/12 02:11:12;;;;;;;10.65;6.68;;;;;;;11.88;62.85;95443.50;4197693;28;20048;-71
2023/10/12 02:13:14;;;;;;;12.57;6.53;;;;;;;12.01;62.29;95434.44;4181431;28;20055;-70
2023/10/12 02:15:16;;;;;;;12.65;6.95;;;;;;;12.11;61.99;95435.22;4209395;28;20059;-70
2023/10/12 02:17:18;;;;;;;10.30;6.60;;;;;;;12.23;61.51;95436.59;4182388;28;20151;-70
2023/10/12 02:19:31;;;;;;;12.02;6.95;;;;;;;12.25;61.23;95437.28;4206690;28;20067;-69
2023/10/12 02:21:38;;;;;;;12.55;6.65;;;;;;;12.28;61.04;95429.13;4210205;28;20601;-67
2023/10/12 02:24:26;;;;;;;12.20;6.82;;;;;;;12.34;60.98;95434.72;4207436;28;20055;-69
2023/10/12 02:26:10;;;;;;;12.50;7.40;;;;;;;12.39;60.69;95435.09;4177364;28;20084;-70
2023/10/12 02:28:13;;;;;;;11.90;6.90;;;;;;;12.40;60.68;95432.31;4189287;28;20060;-71
2023/10/12 02:30:18;;;;;;;13.67;7.07;;;;;;;12.45;60.58;95435.34;4210186;28;20047;-71
2023/10/12 02:32:24;;;;;;;9.75;6.43;;;;;;;12.47;60.44;95435.97;4191938;28;20075;-70
2023/10/12 02:34:31;;;;;;;8.50;6.75;;;;;;;12.48;60.38;95432.38;4192538;28;20065;-71
2023/10/12 02:36:33;;;;;;;11.90;7.10;;;;;;;12.46;60.39;95428.28;4208482;28;20389;-71
2023/10/12 02:38:35;;;;;;;12.70;7.03;;;;;;;12.43;60.65;95431.19;4182600;28;20086;-70
2023/10/12 02:40:41;;;;;;;13.75;7.50;;;;;;;12.20;61.03;95431.66;4201750;28;20163;-69
2023/10/12 02:42:45;;;;;;;13.73;7.60;;;;;;;11.85;61.99;95433.28;4207132;28;20055;-69
2023/10/12 02:47:04;;;;;;;16.42;7.40;;;;;;;11.04;64.91;95436.59;4192735;28;20484;-69
2023/10/12 02:49:13;;;;;;;13.55;7.03;;;;;;;11.10;65.19;95436.97;4200066;28;20084;-69
2023/10/12 02:51:17;;;;;;;10.48;6.80;;;;;;;11.28;64.54;95435.25;4196445;28;20109;-68
2023/10/12 02:53:28;;;;;;;12.07;6.97;;;;;;;11.44;64.21;95432.00;4192437;28;20054;-71
2023/10/12 02:55:40;;;;;;;17.40;7.38;;;;;;;11.64;63.67;95435.34;4209580;28;20423;-69
2023/10/12 02:57:53;;;;;;;15.65;7.53;;;;;;;11.77;62.98;95435.81;4208331;28;20487;-68
2023/10/12 03:00:08;;;;;;;10.82;7.32;;;;;;;11.83;62.71;95426.50;4209038;28;20610;-70
2023/10/12 03:02:32;;;;;;;11.48;7.60;;;;;;;11.93;62.48;95429.94;4187586;28;20056;-69
2023/10/12 03:04:39;;;;;;;13.88;7.50;;;;;;;11.97;62.21;95425.22;4208943;28;20056;-69
2023/10/12 03:07:00;;;;;;;17.42;7.50;;;;;;;11.97;62.00;95417.34;4203084;28;20071;-70
2023/10/12 03:11:15;;;;;;;10.63;7.90;;;;;;;12.05;61.70;95420.03;4199664;28;20159;-73
2023/10/12 03:13:24;;;;;;;14.30;8.25;;;;;;;12.08;61.60;95423.19;4186277;28;20056;-72
2023/10/12 03:15:40;;;;;;;12.07;7.90;;;;;;;12.09;61.59;95416.97;4173668;28;20053;-68
2023/10/12 03:17:57;;;;;;;12.55;7.18;;;;;;;12.10;61.40;95415.16;4206319;28;20491;-70
2023/10/12 03:20:15;;;;;;;15.52;7.28;;;;;;;12.14;61.52;95418.31;4201289;28;20226;-69
2023/10/12 03:22:25;;;;;;;8.57;7.05;;;;;;;12.19;61.26;95416.88;4209641;28;20048;-71
2023/10/12 03:24:38;;;;;;;12.55;7.63;;;;;;;12.21;61.17;95408.84;4188690;28;20084;-70
2023/10/12 03:26:48;;;;;;;12.32;8.02;;;;;;;12.26;60.72;95411.84;4199553;28;20052;-69
2023/10/12 03:28:53;;;;;;;11.90;7.47;;;;;;;12.27;60.64;95416.94;4204604;28;20117;-70
2023/10/12 03:33:27;;;;;;;14.80;7.63;;;;;;;12.27;60.76;95408.25;4209720;28;20070;-71
2023/10/12 03:35:34;;;;;;;14.10;8.43;;;;;;;12.25;60.81;95412.81;4209207;28;20040;-69
2023/10/12 03:37:45;;;;;;;14.27;8.18;;;;;;;12.20;60.96;95413.28;4208740;28;20048;-72
2023/10/12 03:44:02;;;;;;;11.65;8.27;;;;;;;12.21;61.28;95417.53;4181465;28;20076;-70
2023/10/12 03:46:56;;;;;;;13.80;7.63;;;;;;;12.25;61.05;95420.72;4191753;28;20056;-70
2023/10/12 03:48:49;;;;;;;9.00;7.90;;;;;;;12.24;61.06;95430.41;4191449;28;20070;-70
2023/10/12 03:50:59;;;;;;;12.95;7.82;;;;;;;12.24;60.84;95419.88;4201275;28;20057;-69
2023/10/12 03:53:05;;;;;;;14.98;7.55;;;;;;;12.16;61.14;95422.44;4190456;28;20060;-70
2023/10/12 03:58:00;;;;;;;12.07;7.75;;;;;;;12.07;61.40;95423.34;4209187;28;20117;-70
2023/10/12 03:59:44;;;;;;;14.40;7.90;;;;;;;12.04;61.50;95421.00;4189477;28;20063;-70
2023/10/12 04:01:46;;;;;;;11.55;7.78;;;;;;;12.02;61.60;95425.59;4191852;28;20067;-71
2023/10/12 04:03:58;;;;;;;11.43;7.95;;;;;;;11.98;61.89;95416.34;4190862;28;20341;-70
2023/10/12 04:06:06;;;;;;;12.00;8.15;;;;;;;11.99;61.80;95418.84;4180183;28;20055;-70
2023/10/12 04:11:06;;;;;;;14.05;8.50;;;;;;;12.00;61.47;95424.91;4209388;28;20059;-72
2023/10/12 04:12:49;;;;;;;14.07;8.30;;;;;;;11.97;61.86;95419.97;4201853;28;20060;-71
2023/10/12 04:14:54;;;;;;;10.07;7.90;;;;;;;11.93;61.73;95431.75;4207719;28;20058;-71
2023/10/12 04:17:06;;;;;;;14.10;8.52;;;;;;;11.94;61.95;95423.72;4189545;28;20145;-71
2023/10/12 04:19:09;;;;;;;12.75;8.65;;;;;;;11.97;61.86;95425.22;4202942;28;20606;-71
2023/10/12 04:21:22;;;;;;;13.10;8.55;;;;;;;12.00;61.79;95427.53;4203878;28;20480;-70
2023/10/12 04:25:46;;;;;;;14.18;8.43;;;;;;;11.96;61.92;95432.28;4198582;28;20044;-72
2023/10/12 04:27:51;;;;;;;12.88;8.65;;;;;;;11.96;61.80;95427.03;4208199;28;20094;-72
2023/10/12 04:29:57;;;;;;;17.05;9.02;;;;;;;11.93;61.75;95429.13;4207765;28;20415;-71
2023/10/12 04:32:15;;;;;;;15.75;8.85;;;;;;;11.91;61.79;95417.94;4175363;28;20049;-72
2023/10/12 04:34:47;;;;;;;16.45;8.98;;;;;;;11.87;61.94;95427.88;4209878;28;20474;-72
2023/10/12 04:38:56;;;;;;;11.10;7.90;;;;;;;11.91;61.97;95423.19;4187026;28;20449;-72
2023/10/12 04:43:23;;;;;;;10.63;8.45;;;;;;;11.95;61.61;95420.09;4207315;28;20127;-71
2023/10/12 04:45:28;;;;;;;14.38;8.93;;;;;;;11.96;61.46;95415.66;4208521;28;20056;-71
2023/10/12 04:47:30;;;;;;;18.02;9.75;;;;;;;12.01;61.47;95421.31;4190608;28;20063;-72
2023/10/12 04:51:51;;;;;;;12.63;9.25;;;;;;;12.04;61.53;95415.75;4211599;28;20062;-70
2023/10/12 04:56:36;;;;;;;18.00;9.00;;;;;;;12.05;61.50;95417.41;4163969;28;20052;-72
2023/10/12 04:58:43;;;;;;;21.95;11.18;;;;;;;12.05;61.59;95415.63;4192908;28;20059;-71
2023/10/12 05:00:48;;;;;;;26.38;11.43;;;;;;;11.82;61.98;95417.81;4192471;28;20155;-71
2023/10/12 05:02:55;;;;;;;17.92;10.10;;;;;;;11.76;62.22;95422.84;4193137;28;20870;-71
2023/10/12 05:09:33;;;;;;;14.85;9.27;;;;;;;10.87;65.02;95432.09;4202992;28;20059;-73
2023/10/12 05:11:35;;;;;;;20.92;10.65;;;;;;;10.51;65.98;95426.66;4211242;28;20062;-71
2023/10/12 05:13:43;;;;;;;18.75;9.82;;;;;;;10.30;67.29;95436.50;4189748;28;20131;-72
2023/10/12 05:15:54;;;;;;;19.85;10.75;;;;;;;10.45;67.32;95432.47;4191410;28;20117;-72
2023/10/12 05:17:56;;;;;;;16.27;9.85;;;;;;;10.75;66.59;95436.69;4205969;28;20040;-72
2023/10/12 05:20:00;;;;;;;24.35;10.32;;;;;;;11.06;65.38;95433.84;4194166;28;20122;-69
2023/10/12 05:22:02;;;;;;;21.02;10.45;;;;;;;10.99;64.76;95441.47;4212091;28;20852;-70
2023/10/12 05:24:04;;;;;;;22.00;10.90;;;;;;;10.69;65.69;95436.44;4210883;28;20052;-72
2023/10/12 05:26:09;;;;;;;20.17;10.00;;;;;;;10.46;66.79;95436.75;4211991;28;20045;-72
2023/10/12 05:28:14;;;;;;;20.42;11.20;;;;;;;10.30;66.75;95444.34;4184399;28;20053;-72
2023/10/12 05:30:19;;;;;;;21.45;10.98;;;;;;;10.15;67.97;95449.13;4177390;28;20051;-73
2023/10/12 05:32:36;;;;;;;14.15;10.35;;;;;;;10.10;67.85;95454.78;4194110;28;20049;-70
2023/10/12 05:36:42;;;;;;;19.52;10.98;;;;;;;10.08;68.20;95456.72;4197969;28;20105;-72
2023/10/12 05:39:11;;;;;;;20.10;11.02;;;;;;;10.12;68.63;95455.47;4190349;28;20475;-72
2023/10/12 05:41:21;;;;;;;14.88;10.93;;;;;;;10.34;67.44;95461.44;4192398;28;20074;-71
2023/10/12 05:43:29;;;;;;;19.65;11.13;;;;;;;10.64;67.21;95453.41;4193433;28;20461;-71
2023/10/12 05:45:31;;;;;;;19.27;11.23;;;;;;;10.66;66.21;95459.31;4211305;28;20048;-70
2023/10/12 05:47:34;;;;;;;19.85;10.75;;;;;;;10.90;65.94;95465.06;4210944;28;20135;-75
2023/10/12 05:49:36;;;;;;;47.05;11.18;;;;;;;11.06;65.42;95466.13;4176054;28;20053;-71
2023/10/12 05:51:44;;;;;;;17.77;10.20;;;;;;;11.31;64.71;95468.25;4199180;28;20444;-71
2023/10/12 05:54:06;;;;;;;18.85;11.00;;;;;;;11.58;63.81;95465.63;4193822;28;20071;-72
2023/10/12 05:56:08;;;;;;;16.98;10.35;;;;;;;11.85;62.62;95461.31;4208724;28;20048;-71
2023/10/12 05:58:13;;;;;;;19.52;10.52;;;;;;;12.06;61.72;95459.28;4209652;28;20151;-71
2023/10/12 06:00:34;;;;;;;28.00;11.30;;;;;;;12.23;60.91;95457.63;4211068;28;20146;-72
2023/10/12 06:02:37;;;;;;;19.13;11.20;;;;;;;12.39;60.79;95448.22;4182308;28;20053;-72
2023/10/12 06:04:41;;;;;;;17.77;10.73;;;;;;;12.48;60.47;95452.59;4192996;28;20309;-70
2023/10/12 06:06:43;;;;;;;;;;;;;;;12.65;59.87;95453.53;4211111;28;20135;-72
2023/10/12 06:08:45;;;;;;;25.85;11.45;;;;;;;12.73;59.22;95445.69;4192671;28;19970;-73
2023/10/12 06:10:50;;;;;;;19.65;11.10;;;;;;;12.81;59.07;95448.38;4198871;28;20421;-74
2023/10/12 06:12:52;;;;;;;22.85;11.45;;;;;;;12.84;58.41;95457.75;4208913;28;20118;-72
2023/10/12 06:14:56;;;;;;;24.77;12.27;;;;;;;12.92;58.30;95455.19;4192080;28;20078;-72
2023/10/12 06:17:02;;;;;;;24.97;11.93;;;;;;;13.01;58.10;95456.88;4202043;28;20079;-73
2023/10/12 06:19:05;;;;;;;21.63;13.07;;;;;;;12.58;59.39;95457.75;4206353;28;20051;-70
2023/10/12 06:21:07;;;;;;;24.42;14.20;;;;;;;12.34;60.44;95455.75;4184702;28;20583;-71
2023/10/12 06:23:13;;;;;;;18.10;14.10;;;;;;;12.46;60.25;95450.09;4207225;28;20143;-72
2023/10/12 06:25:18;;;;;;;23.67;16.98;;;;;;;12.70;59.82;95446.84;4210122;28;20242;-72
2023/10/12 06:29:26;;;;;;;25.77;15.25;;;;;;;13.18;58.67;95449.09;4207218;28;20278;-71
2023/10/12 06:31:31;;;;;;;39.83;16.52;;;;;;;13.30;58.04;95455.78;4193012;28;20052;-74
2023/10/12 06:33:35;;;;;;;21.98;14.00;;;;;;;13.42;58.05;95444.00;4188296;28;20053;-73
2023/10/12 06:36:00;;;;;;;23.58;13.23;;;;;;;13.54;57.20;95448.97;4202836;28;20052;-72
2023/10/12 06:38:23;;;;;;;21.08;12.20;;;;;;;13.01;58.51;95458.69;4210893;28;20146;-74
2023/10/12 06:42:28;;;;;;;19.87;11.60;;;;;;;12.57;60.16;95456.94;4192840;28;20381;-72
2023/10/12 06:44:33;;;;;;;18.60;12.13;;;;;;;12.76;59.97;95460.34;4175731;28;20282;-73
2023/10/12 06:46:43;;;;;;;23.15;11.32;;;;;;;13.01;59.38;95459.50;4198868;28;20052;-71
2023/10/12 06:48:47;;;;;;;16.65;12.15;;;;;;;13.28;58.69;95462.97;4210499;28;20114;-74
2023/10/12 06:51:02;;;;;;;21.08;10.68;;;;;;;13.05;58.91;95460.84;4210576;28;20056;-71
2023/10/12 06:53:06;;;;;;;19.75;11.32;;;;;;;13.13;58.89;95464.53;4209536;28;20055;-70
2023/10/12 06:55:21;;;;;;;19.58;9.70;;;;;;;13.34;58.75;95461.56;4192348;28;20139;-81
2023/10/12 06:59:35;;;;;;;22.38;10.95;;;;;;;13.80;57.20;95454.97;4208932;28;20127;-72
2023/10/12 07:01:39;;;;;;;18.35;10.48;;;;;;;13.97;56.15;95455.03;4170121;28;20111;-72
2023/10/12 07:03:41;;;;;;;20.33;10.95;;;;;;;14.03;56.27;95457.81;4203870;28;20056;-73
2023/10/12 07:05:44;;;;;;;20.58;12.10;;;;;;;14.19;56.05;95457.03;4196712;28;20059;-71
2023/10/12 07:07:51;;;;;;;22.92;10.93;;;;;;;14.16;56.16;95452.09;4191679;28;20394;-73
2023/10/12 07:12:14;;;;;;;15.00;9.80;;;;;;;14.41;55.54;95465.28;4207087;28;20052;-73
2023/10/12 07:14:16;;;;;;;23.42;10.07;;;;;;;14.57;54.93;95464.50;4202902;28;20079;-71
2023/10/12 07:16:21;;;;;;;17.80;10.85;;;;;;;14.44;54.96;95457.06;4192088;28;20044;-72
2023/10/12 07:18:23;;;;;;;25.23;11.27;;;;;;;14.13;55.96;95457.66;4209480;28;20467;-72
2023/10/12 07:22:36;;;;;;;18.05;10.45;;;;;;;13.93;56.43;95460.59;4186465;28;20106;-70
2023/10/12 07:24:38;;;;;;;24.85;11.30;;;;;;;13.91;56.50;95464.38;4207993;28;20522;-74
2023/10/12 07:26:48;;;;;;;23.48;13.32;;;;;;;13.89;56.94;95461.91;4205921;28;20044;-73
2023/10/12 07:28:50;;;;;;;24.08;14.63;;;;;;;13.99;56.50;95460.94;4192597;28;20060;-73
2023/10/12 07:33:13;;;;;;;20.08;12.07;;;;;;;13.96;56.51;95459.47;4207692;28;20462;-71
2023/10/12 07:35:28;;;;;;;22.67;11.02;;;;;;;14.07;56.42;95451.25;4209295;28;20165;-71
2023/10/12 07:37:31;;;;;;;;;;;;;;;14.27;56.07;95450.94;4192770;28;20415;-74
2023/10/12 07:39:42;;;;;;;25.40;10.85;;;;;;;14.59;55.44;95459.91;4192461;28;19994;-73
2023/10/12 07:42:00;;;;;;;23.17;12.50;;;;;;;14.80;54.80;95459.38;4208688;28;20094;-72
2023/10/12 07:44:04;;;;;;;29.42;17.70;;;;;;;15.00;54.15;95451.94;4202206;28;20060;-74
2023/10/12 07:46:25;;;;;;;18.85;10.88;;;;;;;15.20;53.85;95461.13;4183952;28;20052;-72
2023/10/12 07:48:31;;;;;;;19.95;10.38;;;;;;;15.19;53.61;95454.22;4204622;28;20051;-72
2023/10/12 07:50:45;;;;;;;19.92;12.18;;;;;;;15.13;53.90;95455.69;4210270;28;20044;-73
2023/10/12 07:52:47;;;;;;;18.33;10.02;;;;;;;14.73;54.18;95457.41;4209410;28;20048;-72
2023/10/12 07:56:54;;;;;;;19.50;10.43;;;;;;;15.15;53.90;95455.53;4191946;28;20048;-73
2023/10/12 07:58:59;;;;;;;17.58;11.43;;;;;;;15.44;53.10;95456.75;4198977;28;20056;-74
2023/10/12 08:03:25;;;;;;;22.40;11.48;;;;;;;15.79;51.74;95449.38;4200846;28;20408;-72
2023/10/12 08:05:43;;;;;;;22.35;11.80;;;;;;;15.81;51.63;95450.03;4189744;28;20598;-75
2023/10/12 08:10:09;;;;;;;22.50;11.13;;;;;;;16.02;51.43;95439.66;4202273;28;20052;-74
2023/10/12 08:12:24;;;;;;;22.23;10.60;;;;;;;16.21;50.82;95446.34;4208682;28;20055;-74
2023/10/12 08:16:28;;;;;;;20.42;10.98;;;;;;;16.52;50.25;95438.34;4210562;28;20066;-75
2023/10/12 08:19:10;;;;;;;20.63;10.52;;;;;;;16.68;49.83;95436.56;4208378;28;20102;-72
2023/10/12 08:23:35;;;;;;;15.43;11.10;;;;;;;17.14;49.05;95426.72;4194070;28;20084;-74
2023/10/12 08:25:38;;;;;;;20.40;9.20;;;;;;;17.23;48.57;95424.81;4208007;28;20051;-72
2023/10/12 08:27:52;;;;;;;25.08;11.25;;;;;;;17.18;48.26;95424.53;4211893;28;20163;-71
2023/10/12 08:32:55;;;;;;;15.57;9.90;;;;;;;16.38;49.80;95416.13;4211549;28;20154;-74
2023/10/12 08:36:54;;;;;;;18.73;10.65;;;;;;;16.72;49.63;95406.91;4202957;28;20501;-73
2023/10/12 08:38:56;;;;;;;24.58;11.88;;;;;;;16.98;49.28;95405.72;4200644;28;20049;-72
2023/10/12 08:43:34;;;;;;;24.80;10.27;;;;;;;17.11;48.76;95405.91;4211547;28;20453;-75
2023/10/12 08:45:37;;;;;;;18.92;9.63;;;;;;;17.17;48.21;95401.72;4171451;28;20166;-72
2023/10/12 08:47:48;;;;;;;17.02;11.20;;;;;;;17.09;48.49;95396.50;4195331;28;20055;-72
2023/10/12 08:49:53;;;;;;;18.92;9.70;;;;;;;17.28;48.47;95393.31;4212015;28;20064;-76
2023/10/12 08:52:07;;;;;;;13.32;8.85;;;;;;;17.27;48.09;95394.31;4193995;28;20446;-72
2023/10/12 08:54:16;;;;;;;12.52;8.35;;;;;;;16.88;48.94;95391.91;4196272;28;20151;-74
2023/10/12 08:56:22;;;;;;;18.52;9.32;;;;;;;16.72;49.35;95391.03;4184798;28;20094;-72
2023/10/12 08:58:48;;;;;;;19.85;9.38;;;;;;;16.97;48.71;95383.72;4210870;28;20534;-73
2023/10/12 09:03:06;;;;;;;17.98;8.57;;;;;;;17.23;48.56;95374.50;4205708;28;20539;-71
2023/10/12 09:05:11;;;;;;;20.38;9.23;;;;;;;17.55;47.88;95372.44;4207805;28;20087;-73
2023/10/12 09:07:16;;;;;;;17.33;10.23;;;;;;;17.87;47.61;95376.50;4192462;28;20379;-75
2023/10/12 09:11:44;;;;;;;16.70;10.23;;;;;;;17.93;46.97;95364.34;4208631;28;20277;-71
2023/10/12 09:13:49;;;;;;;23.50;10.38;;;;;;;18.15;46.41;95365.97;4174940;28;20059;-74
2023/10/12 09:15:54;;;;;;;12.20;9.02;;;;;;;18.31;45.77;95359.59;4209493;28;20071;-75
2023/10/12 09:18:09;;;;;;;22.63;10.10;;;;;;;18.30;45.62;95352.63;4211959;28;20047;-73
2023/10/12 09:20:28;;;;;;;18.08;9.82;;;;;;;18.17;45.99;95349.88;4206520;28;20416;-72
2023/10/12 09:22:33;;;;;;;23.88;11.25;;;;;;;18.21;46.04;95349.31;4211536;28;20458;-73
2023/10/12 09:24:36;;;;;;;24.92;11.20;;;;;;;18.12;46.12;95347.81;4210519;28;20043;-74
2023/10/12 09:26:46;;;;;;;18.07;10.17;;;;;;;17.87;46.88;95344.69;4184291;28;20048;-73
2023/10/12 09:30:52;;;;;;;14.75;9.13;;;;;;;17.90;47.24;95328.44;4212928;28;20535;-75
2023/10/12 09:33:05;;;;;;;24.83;10.15;;;;;;;18.15;46.16;95336.00;4193542;28;20066;-74
2023/10/12 09:35:14;;;;;;;30.33;10.13;;;;;;;18.28;46.10;95333.44;4194722;28;20356;-75
2023/10/12 09:37:16;;;;;;;19.75;8.43;;;;;;;18.55;45.89;95326.53;4200554;28;20052;-73
2023/10/12 09:39:25;;;;;;;14.45;8.20;;;;;;;18.88;45.45;95325.13;4204769;28;20119;-74
2023/10/12 09:41:33;;;;;;;18.77;8.10;;;;;;;19.13;44.97;95315.69;4206704;28;20052;-74
2023/10/12 09:43:39;;;;;;;14.05;8.30;;;;;;;19.35;44.03;95316.38;4195483;28;20148;-75
2023/10/12 09:45:55;;;;;;;16.92;8.23;;;;;;;19.53;43.65;95312.34;4177690;28;20469;-73
2023/10/12 09:47:58;;;;;;;19.33;8.57;;;;;;;19.56;43.64;95310.13;4209748;28;20082;-74
2023/10/12 09:50:13;;;;;;;16.02;8.27;;;;;;;19.37;43.81;95300.25;4183302;28;20152;-73
2023/10/12 09:52:18;;;;;;;16.98;8.52;;;;;;;19.42;44.03;95306.63;4193098;28;20061;-74
2023/10/12 09:54:28;;;;;;;14.63;7.95;;;;;;;19.60;43.83;95300.72;4188744;28;20095;-75
2023/10/12 09:56:34;;;;;;;20.55;8.40;;;;;;;19.79;43.38;95298.38;4192072;28;20055;-75
2023/10/12 09:58:43;;;;;;;16.80;8.15;;;;;;;19.94;43.16;95287.53;4185434;28;20083;-73
2023/10/12 10:00:59;;;;;;;14.60;7.88;;;;;;;20.05;42.76;95282.44;4193594;28;20063;-75
2023/10/12 10:03:03;;;;;;;18.73;8.38;;;;;;;20.16;42.51;95280.19;4195285;28;20061;-73
2023/10/12 10:05:11;;;;;;;15.85;8.48;;;;;;;20.28;42.50;95269.75;4193972;28;20549;-73
2023/10/12 10:07:25;;;;;;;15.13;8.45;;;;;;;20.27;42.22;95274.25;4192946;28;20465;-75
2023/10/12 10:11:33;;;;;;;18.42;9.05;;;;;;;18.99;44.50;95276.78;4211732;28;19931;-74
2023/10/12 10:13:39;;;;;;;21.63;8.65;;;;;;;18.88;45.33;95272.03;4184405;28;20471;-73
2023/10/12 10:15:56;;;;;;;17.52;9.20;;;;;;;19.11;44.65;95269.09;4206160;28;20127;-74
2023/10/12 10:18:04;;;;;;;20.23;9.70;;;;;;;19.15;44.64;95273.81;4189230;28;20078;-73
2023/10/12 10:20:46;;;;;;;23.83;9.02;;;;;;;19.11;44.73;95272.56;4188178;28;20098;-74
2023/10/12 10:22:39;;;;;;;15.07;7.95;;;;;;;19.26;44.56;95266.28;4209010;28;20117;-72
2023/10/12 10:24:45;;;;;;;22.92;8.23;;;;;;;19.17;44.59;95269.13;4211007;28;20109;-76
2023/10/12 10:26:57;;;;;;;22.88;8.68;;;;;;;19.54;44.05;95252.88;4211162;28;20501;-73
2023/10/12 10:29:06;;;;;;;20.92;10.98;;;;;;;19.78;43.59;95256.84;4192820;28;20481;-72
2023/10/12 10:31:11;;;;;;;14.93;8.40;;;;;;;20.05;43.32;95255.84;4210333;28;20169;-73
2023/10/12 10:33:20;;;;;;;20.52;7.78;;;;;;;20.15;42.88;95254.59;4207959;28;20049;-74
2023/10/12 10:35:22;;;;;;;20.05;7.97;;;;;;;20.13;42.80;95240.69;4193663;28;20072;-74
2023/10/12 10:37:58;;;;;;;18.40;9.23;;;;;;;20.03;43.22;95241.13;4176463;28;20061;-73
2023/10/12 10:40:07;;;;;;;14.15;6.88;;;;;;;20.31;43.02;95240.91;4192465;28;20063;-74
2023/10/12 10:42:09;;;;;;;13.77;7.07;;;;;;;20.49;42.62;95232.25;4207402;28;20074;-74
2023/10/12 10:44:16;;;;;;;13.20;7.57;;;;;;;20.72;42.35;95229.19;4193876;28;20056;-75
2023/10/12 10:46:26;;;;;;;12.32;7.53;;;;;;;20.72;41.39;95229.19;4209755;28;20428;-74
2023/10/12 10:48:29;;;;;;;21.75;8.07;;;;;;;20.27;42.16;95234.34;4192275;28;20040;-72
2023/10/12 10:50:49;;;;;;;20.75;7.72;;;;;;;20.17;42.73;95229.44;4207283;28;20048;-74
2023/10/12 10:52:59;;;;;;;14.50;7.40;;;;;;;20.36;42.51;95222.47;4208914;28;20405;-74
2023/10/12 10:55:02;;;;;;;16.92;6.97;;;;;;;20.65;42.23;95215.88;4213874;28;20056;-74
2023/10/12 10:57:24;;;;;;;16.60;7.22;;;;;;;20.93;41.70;95211.28;4211091;28;20062;-73
2023/10/12 10:59:30;;;;;;;13.77;6.93;;;;;;;21.12;41.34;95198.91;4209510;28;20488;-73
2023/10/12 11:01:33;;;;;;;15.93;7.22;;;;;;;21.33;41.11;95192.44;4211371;28;20134;-75
2023/10/12 11:03:35;;;;;;;;;;;;;;;21.52;40.90;95194.22;4208194;28;20062;-75
2023/10/12 11:05:38;;;;;;;10.13;6.57;;;;;;;21.67;40.22;95186.72;4208853;28;19923;-75
2023/10/12 11:07:40;;;;;;;13.70;6.68;;;;;;;21.82;40.13;95186.41;4181652;28;20058;-72
2023/10/12 11:11:59;;;;;;;15.20;7.60;;;;;;;21.86;39.87;95184.94;4208114;28;20475;-75
2023/10/12 11:14:01;;;;;;;16.63;6.88;;;;;;;21.88;39.89;95182.88;4203059;28;20059;-74
2023/10/12 11:16:20;;;;;;;12.80;6.90;;;;;;;21.71;39.58;95179.09;4186169;28;20056;-77